Wiley Ford, WV

12:40 AM EDT on September 03, 2015 (GMT -0400)
Greater Cumberland Regional | | Change Station
CLOSE
Current Station
Airport
Location: Cumberland,
Elevation: 774 ft
Nearby Weather Stations

Elev 774 ft 39.62 °N, 78.76 °W | Updated 17 minutes ago

Overcast
Overcast
70 °F
Feels Like 70 °F
N
0
Wind Variable Wind from North

Today
High -- | Low -- °F
--% Chance of Precip.
Yesterday
High -- | Low -- °F
Precip. -- in
6:44 AM 7:43 PM
Waning Gibbous, 74% visible
Pressure 30.05 in
Visibility 0.2 miles
Clouds Overcast 100 ft
Dew Point 70 °F
Humidity 100%
Rainfall 0.00 in
Snow Depth Not available.
UV 0 out of 12
Pollen 10.00 out of 12
Air Quality Not available.
Flu Activity Not available.
METAR KCBE 030423Z AUTO 00000KT 1/4SM OVC001 21/21 A3005 RMK AO1
Pressure 30.05 in
Visibility 0.2 miles
Clouds Overcast 100 ft
Dew Point 70 °F
Humidity 100%
Rainfall 0.00 in
Snow Depth Not available.
UV 0 out of 12
Pollen 10.00 out of 12
Air Quality Not available.
Flu Activity Not available.
METAR KCBE 030423Z AUTO 00000KT 1/4SM OVC001 21/21 A3005 RMK AO1

10-Day Weather Forecast

×

Almanac

Astronomy

Sep. 03, 2015 Rise Set
Actual Time
Civil Twilight
Nautical Twilight
Astronomical Twilight
Moon
Length of Visible Light
Length of Day
Tomorrow will be .
, % of the Moon is Illuminated

Today's Extremes

State Highs State Lows

Community

WunderPhotos

Upload Photos

1,851,913 photos uploaded!

WunderBlogs® & News

Nearby

Air Quality

  Air Quality AQ Index Pollutant
Not available.

Snow Depth

Station Depth Elevation

Earthquake Activity

City Distance Mag. Time & Date
Minimum magnitude displayed is 2.5.

Coastal Water Temperatures

Place Temperature

Stations

Nearby Weather Stations

Station Location Temp. Windchill Dew Point Humidity Wind Precip. Elev Updated Type